Time;durP1;ratioP1;P1;durP2;ratioP2;P2;SDS_P1;SDS_P2;PMS_P1;PMS_P2;Temp;Humidity;BMP_temperature;BMP_pressure;BME280_temperature;BME280_humidity;BME280_pressure;Samples;Min_cycle;Max_cycle;Signal;HPM_P1;HPM_P2
2022/08/16 00:01:54;;;;;;;3.53;2.22;;;28.10;46.80;;;;;;5025862;28;20040;-56
2022/08/16 00:04:20;;;;;;;2.47;2.08;;;28.10;46.80;;;;;;5028373;28;20108;-56
2022/08/16 00:06:46;;;;;;;4.25;1.88;;;28.10;46.80;;;;;;5026736;28;20112;-55
2022/08/16 00:09:12;;;;;;;3.63;2.35;;;28.10;46.80;;;;;;5028499;28;20033;-57
2022/08/16 00:11:40;;;;;;;2.30;2.10;;;28.10;46.80;;;;;;5025392;28;20395;-58
2022/08/16 00:14:09;;;;;;;2.67;2.20;;;28.00;46.80;;;;;;5024467;28;20108;-57
2022/08/16 00:16:35;;;;;;;2.17;1.90;;;28.00;46.80;;;;;;5025626;28;20052;-57
2022/08/16 00:19:01;;;;;;;2.70;1.90;;;28.00;46.80;;;;;;5026133;28;20053;-58
2022/08/16 00:21:27;;;;;;;3.45;2.00;;;28.00;46.80;;;;;;5026189;28;20100;-57
2022/08/16 00:23:53;;;;;;;2.05;1.85;;;28.00;46.80;;;;;;5027766;28;20120;-55
2022/08/16 00:26:19;;;;;;;4.28;2.22;;;28.00;46.90;;;;;;5024693;28;20036;-56
2022/08/16 00:28:45;;;;;;;3.15;2.30;;;28.00;46.90;;;;;;5023730;28;21951;-54
2022/08/16 00:31:11;;;;;;;3.80;2.15;;;28.00;47.00;;;;;;5027607;28;20064;-56
2022/08/16 00:33:37;;;;;;;2.90;1.85;;;28.00;46.90;;;;;;5031220;28;20112;-54
2022/08/16 00:36:03;;;;;;;2.45;1.90;;;28.00;47.00;;;;;;5026623;28;20410;-55
2022/08/16 00:38:29;;;;;;;2.45;2.15;;;28.00;47.00;;;;;;5029806;28;20033;-54
2022/08/16 00:40:55;;;;;;;3.10;2.22;;;28.00;47.00;;;;;;5028487;28;20029;-58
2022/08/16 00:43:28;;;;;;;2.65;2.00;;;28.00;47.10;;;;;;5031947;28;20053;-54
2022/08/16 00:46:03;;;;;;;2.95;2.28;;;28.00;47.20;;;;;;5028987;28;20021;-56
2022/08/16 00:48:30;;;;;;;3.30;2.15;;;28.00;47.20;;;;;;5029880;28;20041;-52
2022/08/16 00:50:56;;;;;;;2.30;2.03;;;28.00;47.20;;;;;;5029872;28;20022;-55
2022/08/16 00:53:23;;;;;;;2.38;2.00;;;27.90;47.20;;;;;;5027861;28;20030;-57
2022/08/16 00:55:53;;;;;;;2.80;2.03;;;27.90;47.20;;;;;;5027302;28;20034;-55
2022/08/16 00:58:22;;;;;;;2.83;2.30;;;28.00;47.30;;;;;;5028853;28;20029;-58
2022/08/16 01:00:49;;;;;;;2.78;2.15;;;28.00;47.30;;;;;;5029977;28;20056;-54
2022/08/16 01:03:18;;;;;;;2.88;2.28;;;27.90;47.30;;;;;;5030957;28;20034;-57
2022/08/16 01:05:45;;;;;;;2.97;2.38;;;27.90;47.30;;;;;;5030132;28;20046;-53
2022/08/16 01:08:13;;;;;;;4.85;2.53;;;27.90;47.40;;;;;;5030188;28;20063;-58
2022/08/16 01:10:40;;;;;;;3.17;2.17;;;27.90;47.40;;;;;;5024818;28;20355;-56
2022/08/16 01:13:13;;;;;;;3.00;2.47;;;27.90;47.40;;;;;;5031836;28;20372;-58
2022/08/16 01:15:45;;;;;;;4.28;2.08;;;27.90;47.50;;;;;;5031024;28;20117;-56
2022/08/16 01:18:16;;;;;;;2.92;2.30;;;27.90;47.50;;;;;;5028168;28;20411;-58
2022/08/16 01:20:50;;;;;;;2.85;2.13;;;27.90;47.50;;;;;;5046590;28;20036;-55
2022/08/16 01:23:23;;;;;;;2.95;2.17;;;27.90;47.50;;;;;;5027529;28;20076;-55
2022/08/16 01:25:51;;;;;;;3.13;2.10;;;27.80;47.50;;;;;;5029501;28;20395;-53
2022/08/16 01:28:20;;;;;;;2.78;2.35;;;27.90;47.60;;;;;;5028813;28;20037;-54
2022/08/16 01:30:52;;;;;;;4.30;2.15;;;27.90;47.60;;;;;;5029592;28;20095;-57
2022/08/16 01:33:19;;;;;;;4.55;2.47;;;27.90;47.70;;;;;;5028825;28;20039;-54
2022/08/16 01:35:51;;;;;;;3.67;2.53;;;27.80;47.60;;;;;;5021154;28;20030;-55
2022/08/16 01:38:42;;;;;;;3.63;2.78;;;27.80;47.60;;;;;;5027360;28;20441;-55
2022/08/16 01:41:14;;;;;;;2.47;2.13;;;27.90;47.70;;;;;;5025636;28;20160;-58
2022/08/16 01:43:43;;;;;;;2.67;2.20;;;27.80;47.70;;;;;;5042675;28;20063;-56
2022/08/16 01:46:22;;;;;;;2.70;2.10;;;27.80;47.80;;;;;;5021094;28;20322;-56
2022/08/16 01:48:54;;;;;;;2.60;2.40;;;27.80;47.80;;;;;;5018151;28;20420;-55
2022/08/16 01:51:23;;;;;;;5.28;2.78;;;27.80;47.80;;;;;;5022442;28;20122;-54
2022/08/16 01:53:49;;;;;;;3.25;2.40;;;27.80;47.90;;;;;;5029931;28;20036;-55
2022/08/16 01:56:25;;;;;;;3.83;2.45;;;27.80;47.90;;;;;;5024843;28;20025;-56
2022/08/16 01:58:53;;;;;;;3.70;2.55;;;27.80;47.90;;;;;;5024465;28;20026;-50
2022/08/16 02:01:20;;;;;;;2.17;1.98;;;27.80;47.90;;;;;;5023187;28;20571;-57
2022/08/16 02:03:46;;;;;;;2.78;2.33;;;27.80;48.00;;;;;;5016508;28;20469;-54
2022/08/16 02:06:12;;;;;;;3.05;2.28;;;27.80;48.00;;;;;;5024562;28;20144;-55
2022/08/16 02:08:37;;;;;;;2.83;2.22;;;27.80;48.00;;;;;;5019110;28;20049;-50
2022/08/16 02:11:07;;;;;;;3.38;2.28;;;27.80;48.00;;;;;;5026722;28;20139;-54
2022/08/16 02:13:39;;;;;;;3.25;2.50;;;27.70;48.00;;;;;;5024279;28;20040;-55
2022/08/16 02:16:07;;;;;;;3.47;2.42;;;27.70;48.00;;;;;;5025078;28;20036;-56
2022/08/16 02:18:33;;;;;;;3.97;2.65;;;27.70;48.00;;;;;;5018620;28;20029;-57
2022/08/16 02:21:00;;;;;;;2.90;2.20;;;27.70;48.00;;;;;;5021703;28;20120;-59
2022/08/16 02:23:26;;;;;;;2.97;2.67;;;27.70;48.10;;;;;;5018060;28;20077;-57
2022/08/16 02:25:53;;;;;;;2.92;2.58;;;27.70;48.10;;;;;;5020995;28;20029;-57
2022/08/16 02:28:23;;;;;;;2.90;2.33;;;27.70;48.10;;;;;;5026995;28;20037;-58
2022/08/16 02:30:49;;;;;;;4.40;2.65;;;27.70;48.10;;;;;;5020040;28;20025;-58
2022/08/16 02:33:15;;;;;;;3.28;2.33;;;27.70;48.10;;;;;;5024683;28;20036;-58
2022/08/16 02:35:41;;;;;;;3.97;2.80;;;27.70;48.20;;;;;;5026966;28;20113;-55
2022/08/16 02:38:07;;;;;;;5.22;2.55;;;27.70;48.20;;;;;;5026623;28;20030;-54
2022/08/16 02:40:33;;;;;;;3.35;2.75;;;27.70;48.80;;;;;;5028081;28;20057;-53
2022/08/16 02:43:00;;;;;;;2.80;2.30;;;27.70;48.10;;;;;;5018331;28;20119;-55
2022/08/16 02:45:27;;;;;;;2.67;2.47;;;27.70;48.20;;;;;;5028963;28;20448;-55
2022/08/16 02:47:53;;;;;;;2.85;2.50;;;27.70;48.20;;;;;;5025708;28;20060;-54
2022/08/16 02:50:20;;;;;;;3.17;2.47;;;27.70;48.20;;;;;;5004688;28;20068;-54
2022/08/16 02:52:46;;;;;;;4.65;2.40;;;27.70;48.20;;;;;;5020232;28;20025;-56
2022/08/16 02:55:12;;;;;;;3.65;2.30;;;27.70;48.20;;;;;;5029847;28;20031;-53
2022/08/16 02:57:38;;;;;;;3.00;2.28;;;27.70;48.20;;;;;;5040343;28;20368;-54
2022/08/16 03:00:09;;;;;;;2.65;2.25;;;27.60;48.10;;;;;;5020834;28;20466;-56
2022/08/16 03:02:39;;;;;;;3.05;2.50;;;27.60;48.20;;;;;;5017733;28;20033;-56
2022/08/16 03:05:10;;;;;;;3.60;2.55;;;27.60;48.20;;;;;;5027850;28;20378;-58
2022/08/16 03:07:38;;;;;;;3.42;2.55;;;27.60;48.20;;;;;;5017204;28;20389;-57
2022/08/16 03:10:08;;;;;;;2.60;2.38;;;27.60;48.20;;;;;;5013973;28;20090;-57
2022/08/16 03:12:38;;;;;;;3.42;2.58;;;27.60;48.20;;;;;;5026658;28;20036;-55
2022/08/16 03:15:09;;;;;;;3.28;2.40;;;27.60;48.20;;;;;;5027055;28;20104;-58
2022/08/16 03:17:35;;;;;;;3.72;2.92;;;27.60;48.20;;;;;;5024125;28;20349;-54
2022/08/16 03:20:08;;;;;;;2.53;2.33;;;27.60;48.20;;;;;;5026373;28;20033;-57
2022/08/16 03:22:37;;;;;;;3.00;2.70;;;27.60;48.30;;;;;;5027266;28;20053;-55
2022/08/16 03:25:10;;;;;;;3.28;2.80;;;27.60;48.30;;;;;;5014859;28;20361;-58
2022/08/16 03:27:39;;;;;;;3.65;2.55;;;27.60;48.30;;;;;;5017610;28;20095;-54
2022/08/16 03:30:19;;;;;;;3.78;3.08;;;27.60;48.40;;;;;;5023643;28;20116;-58
2022/08/16 03:32:49;;;;;;;2.97;2.65;;;27.60;48.40;;;;;;5017462;28;20192;-56
2022/08/16 03:35:17;;;;;;;3.22;2.50;;;27.60;48.40;;;;;;5014764;28;20521;-55
2022/08/16 03:37:46;;;;;;;5.13;3.00;;;27.50;48.40;;;;;;5039111;28;20026;-53
2022/08/16 03:40:14;;;;;;;3.35;3.05;;;27.50;48.40;;;;;;5026546;28;20037;-55
2022/08/16 03:42:41;;;;;;;4.28;3.15;;;27.50;48.40;;;;;;5016859;28;20036;-57
2022/08/16 03:45:07;;;;;;;3.30;3.00;;;27.60;48.50;;;;;;5028571;28;20018;-58
2022/08/16 03:47:35;;;;;;;4.43;2.97;;;27.60;48.60;;;;;;5024178;28;20044;-52
2022/08/16 03:50:05;;;;;;;3.35;2.72;;;27.50;48.50;;;;;;5019046;28;20018;-58
2022/08/16 03:52:30;;;;;;;3.90;3.10;;;27.50;48.50;;;;;;5022256;28;20030;-53
2022/08/16 03:54:56;;;;;;;3.35;2.35;;;27.50;48.50;;;;;;5022230;28;20056;-56
2022/08/16 03:57:22;;;;;;;5.30;2.88;;;27.50;48.60;;;;;;5019824;28;20469;-59
2022/08/16 03:59:49;;;;;;;3.50;3.20;;;27.50;48.60;;;;;;5024835;28;20403;-53
2022/08/16 04:02:17;;;;;;;3.15;2.85;;;27.50;48.60;;;;;;5041973;28;20017;-55
2022/08/16 04:04:44;;;;;;;4.25;2.85;;;27.50;48.60;;;;;;5018884;28;20050;-57
2022/08/16 04:07:10;;;;;;;4.50;3.22;;;27.50;48.60;;;;;;5019410;28;20026;-54
2022/08/16 04:09:39;;;;;;;3.08;2.53;;;27.50;48.70;;;;;;5025269;28;20528;-57
2022/08/16 04:12:09;;;;;;;4.10;2.67;;;27.50;48.70;;;;;;5029434;28;20079;-58
2022/08/16 04:14:35;;;;;;;3.92;2.60;;;27.50;48.70;;;;;;5028976;28;20041;-55
2022/08/16 04:17:03;;;;;;;3.65;2.78;;;27.50;48.70;;;;;;5018220;28;20033;-57
2022/08/16 04:19:34;;;;;;;3.67;3.17;;;27.50;48.70;;;;;;5026395;28;20037;-57
2022/08/16 04:22:00;;;;;;;3.17;2.58;;;27.40;48.70;;;;;;5023018;28;20021;-56
2022/08/16 04:24:29;;;;;;;3.92;2.78;;;27.40;48.70;;;;;;5028719;28;20120;-55
2022/08/16 04:26:56;;;;;;;3.65;3.03;;;27.50;48.80;;;;;;5026933;28;20057;-56
2022/08/16 04:29:22;;;;;;;3.45;2.80;;;27.50;48.80;;;;;;5017838;28;20064;-55
2022/08/16 04:31:49;;;;;;;3.72;3.08;;;27.50;48.90;;;;;;5029354;28;20048;-54
2022/08/16 04:34:15;;;;;;;3.72;3.25;;;27.40;48.80;;;;;;5027222;28;20021;-56
2022/08/16 04:36:43;;;;;;;3.83;3.00;;;27.40;48.90;;;;;;5021804;28;20025;-53
2022/08/16 04:39:08;;;;;;;5.47;3.70;;;27.40;48.90;;;;;;5019691;28;20044;-58
2022/08/16 04:41:36;;;;;;;5.28;3.28;;;27.40;49.00;;;;;;5020957;28;20114;-55
2022/08/16 04:44:02;;;;;;;5.78;3.50;;;27.40;49.00;;;;;;5027103;28;20437;-56
2022/08/16 04:46:28;;;;;;;3.90;3.38;;;27.40;49.00;;;;;;5006155;28;20040;-54
2022/08/16 04:48:55;;;;;;;4.03;3.50;;;27.40;49.10;;;;;;5022266;28;20140;-56
2022/08/16 04:51:21;;;;;;;4.13;3.53;;;27.40;49.20;;;;;;5030333;28;20029;-56
2022/08/16 04:53:48;;;;;;;6.32;3.90;;;27.40;49.20;;;;;;5020563;28;20100;-57
2022/08/16 04:56:17;;;;;;;3.72;3.30;;;27.40;49.20;;;;;;5029246;28;20032;-55
2022/08/16 04:58:44;;;;;;;5.43;3.50;;;27.40;49.20;;;;;;5028854;28;21688;-53
2022/08/16 05:01:10;;;;;;;4.97;3.83;;;27.30;49.20;;;;;;5028089;28;20032;-58
2022/08/16 05:03:36;;;;;;;4.72;3.92;;;27.40;49.30;;;;;;5026179;28;20365;-57
2022/08/16 05:06:02;;;;;;;3.90;3.35;;;27.30;49.30;;;;;;5015673;28;20125;-54
2022/08/16 05:08:29;;;;;;;3.95;3.17;;;27.40;49.40;;;;;;5021529;28;20061;-57
2022/08/16 05:11:02;;;;;;;5.18;3.38;;;27.40;49.40;;;;;;5026221;28;20064;-57
2022/08/16 05:13:29;;;;;;;4.47;3.60;;;27.40;49.40;;;;;;5018831;28;20099;-57
2022/08/16 05:15:58;;;;;;;4.95;3.45;;;27.30;49.40;;;;;;5027289;28;20025;-56
2022/08/16 05:18:26;;;;;;;4.15;3.70;;;27.30;49.40;;;;;;5023772;28;20022;-52
2022/08/16 05:20:54;;;;;;;3.85;3.40;;;27.30;49.40;;;;;;5019159;28;20037;-59
2022/08/16 05:23:20;;;;;;;4.22;3.40;;;27.30;49.40;;;;;;5021218;28;20072;-53
2022/08/16 05:25:46;;;;;;;4.10;3.50;;;27.30;49.40;;;;;;5015803;28;20037;-54
2022/08/16 05:28:12;;;;;;;3.85;3.28;;;27.30;49.50;;;;;;5021228;28;20042;-57
2022/08/16 05:30:44;;;;;;;5.50;3.85;;;27.30;49.40;;;;;;5027545;28;20083;-58
2022/08/16 05:33:19;;;;;;;5.25;3.95;;;27.30;49.50;;;;;;5026465;28;20559;-56
2022/08/16 05:35:48;;;;;;;3.78;3.38;;;27.30;49.50;;;;;;5020279;28;20037;-57
2022/08/16 05:38:18;;;;;;;3.80;3.40;;;27.30;49.50;;;;;;5029670;28;20033;-57
2022/08/16 05:40:44;;;;;;;4.35;3.70;;;27.30;49.50;;;;;;5027010;28;20026;-58
2022/08/16 05:43:11;;;;;;;4.63;3.67;;;27.30;49.50;;;;;;5022006;28;20453;-55
2022/08/16 05:45:38;;;;;;;5.05;4.15;;;27.30;49.50;;;;;;5009257;28;20409;-57
2022/08/16 05:48:04;;;;;;;5.60;4.40;;;27.30;49.50;;;;;;5029130;28;20049;-56
2022/08/16 05:50:39;;;;;;;6.22;4.35;;;27.30;49.50;;;;;;5028374;28;20112;-57
2022/08/16 05:53:05;;;;;;;5.10;3.92;;;27.30;49.50;;;;;;5017890;28;20120;-55
2022/08/16 05:55:36;;;;;;;5.43;4.45;;;27.30;49.50;;;;;;5017094;28;20087;-56
2022/08/16 05:58:03;;;;;;;5.25;4.20;;;27.30;49.60;;;;;;5028326;28;20037;-56
2022/08/16 06:00:30;;;;;;;4.90;3.88;;;27.30;49.50;;;;;;5016883;28;20361;-54
2022/08/16 06:02:56;;;;;;;6.18;4.25;;;27.30;49.50;;;;;;5022457;28;20037;-57
2022/08/16 06:05:41;;;;;;;5.57;4.32;;;27.30;49.50;;;;;;5030476;28;20896;-55
2022/08/16 06:08:06;;;;;;;5.75;4.38;;;27.30;49.60;;;;;;5027722;28;20453;-54
2022/08/16 06:10:39;;;;;;;4.47;3.90;;;27.30;49.60;;;;;;5017677;28;20034;-56
2022/08/16 06:13:05;;;;;;;5.13;4.20;;;27.20;49.60;;;;;;5025838;28;20060;-55
2022/08/16 06:15:32;;;;;;;4.22;3.70;;;27.30;49.60;;;;;;5020245;28;20022;-52
2022/08/16 06:17:58;;;;;;;6.25;4.13;;;27.30;49.70;;;;;;5019650;28;20048;-58
2022/08/16 06:20:27;;;;;;;4.18;3.70;;;27.20;49.60;;;;;;5026736;28;20018;-56
2022/08/16 06:22:57;;;;;;;5.25;3.85;;;27.30;49.80;;;;;;5042700;28;20025;-57
2022/08/16 06:25:26;;;;;;;5.90;3.90;;;27.30;49.80;;;;;;5023198;28;20415;-58
2022/08/16 06:27:53;;;;;;;4.43;3.53;;;27.20;49.70;;;;;;5016650;28;20045;-57
2022/08/16 06:30:20;;;;;;;6.57;3.88;;;27.30;49.80;;;;;;5028038;28;20040;-57
2022/08/16 06:32:47;;;;;;;5.82;4.03;;;27.30;49.70;;;;;;5014507;28;20038;-54
2022/08/16 06:35:14;;;;;;;4.63;3.60;;;27.20;49.70;;;;;;5028412;28;20035;-56
2022/08/16 06:37:42;;;;;;;4.25;3.58;;;27.30;49.70;;;;;;5015893;28;20123;-57
2022/08/16 06:40:09;;;;;;;6.20;3.97;;;27.30;49.70;;;;;;5020795;28;20030;-53
2022/08/16 06:42:40;;;;;;;4.45;3.67;;;27.30;49.70;;;;;;5018378;28;20060;-55
2022/08/16 06:45:29;;;;;;;6.35;3.72;;;27.30;49.80;;;;;;5024449;28;20357;-55
2022/08/16 06:48:11;;;;;;;4.20;3.70;;;27.20;49.70;;;;;;5020666;28;20397;-57
2022/08/16 06:50:38;;;;;;;4.47;3.60;;;27.20;49.70;;;;;;5025557;28;20025;-56
2022/08/16 06:53:07;;;;;;;6.68;4.15;;;27.30;49.70;;;;;;5020052;28;21001;-56
2022/08/16 06:55:34;;;;;;;4.47;3.60;;;27.30;49.70;;;;;;5016239;28;20025;-56
2022/08/16 06:58:05;;;;;;;4.22;3.83;;;27.30;49.70;;;;;;5045768;28;20021;-55
2022/08/16 07:00:31;;;;;;;8.15;4.22;;;27.30;49.60;;;;;;5023437;28;20037;-56
2022/08/16 07:03:05;;;;;;;4.22;3.83;;;27.20;49.50;;;;;;5017864;28;20053;-58
2022/08/16 07:05:32;;;;;;;4.35;3.90;;;27.30;49.50;;;;;;5013948;28;20050;-56
2022/08/16 07:08:13;;;;;;;7.20;3.88;;;27.30;49.50;;;;;;5024237;28;20094;-57
2022/08/16 07:10:43;;;;;;;4.75;4.35;;;27.30;49.50;;;;;;5022368;28;20484;-56
2022/08/16 07:13:09;;;;;;;5.20;4.35;;;27.30;49.50;;;;;;5023000;28;20021;-57
2022/08/16 07:15:37;;;;;;;6.63;4.43;;;27.30;49.50;;;;;;5019631;28;20067;-56
2022/08/16 07:18:04;;;;;;;5.60;4.30;;;27.30;49.40;;;;;;5024596;28;20026;-54
2022/08/16 07:20:31;;;;;;;4.93;4.38;;;27.20;49.30;;;;;;5017013;28;20025;-58
2022/08/16 07:22:57;;;;;;;4.70;4.20;;;27.30;49.40;;;;;;5024365;28;20029;-58
2022/08/16 07:25:27;;;;;;;5.70;4.28;;;27.20;49.30;;;;;;5025866;28;20095;-51
2022/08/16 07:27:53;;;;;;;9.50;4.55;;;27.30;49.40;;;;;;5023447;28;20408;-57
2022/08/16 07:30:22;;;;;;;4.60;4.13;;;27.30;49.40;;;;;;5023336;28;20030;-57
2022/08/16 07:32:49;;;;;;;7.20;4.53;;;27.20;49.30;;;;;;5018221;28;20037;-55
2022/08/16 07:35:16;;;;;;;6.75;4.03;;;27.30;49.30;;;;;;5027784;28;20428;-57
2022/08/16 07:37:43;;;;;;;6.18;4.43;;;27.20;49.20;;;;;;5025657;28;20036;-56
2022/08/16 07:40:17;;;;;;;5.00;4.25;;;27.30;49.90;;;;;;5034051;28;20083;-56
2022/08/16 07:42:44;;;;;;;6.78;4.65;;;27.20;49.20;;;;;;5030322;28;20392;-54
2022/08/16 07:45:10;;;;;;;6.97;3.95;;;27.30;49.30;;;;;;5019803;28;20095;-56
2022/08/16 07:47:38;;;;;;;4.55;3.95;;;27.30;49.30;;;;;;5026674;28;20034;-56
2022/08/16 07:50:05;;;;;;;6.45;4.00;;;27.30;49.20;;;;;;5023200;28;20040;-56
2022/08/16 07:52:31;;;;;;;5.05;3.35;;;27.30;49.20;;;;;;5022281;28;20484;-57
2022/08/16 07:54:57;;;;;;;3.58;3.28;;;27.30;49.10;;;;;;5025010;28;20030;-55
2022/08/16 07:57:24;;;;;;;3.80;3.50;;;27.30;49.00;;;;;;5014624;28;20022;-57
2022/08/16 07:59:51;;;;;;;4.85;3.65;;;27.30;49.00;;;;;;5021331;28;20037;-55
2022/08/16 08:02:18;;;;;;;5.00;3.50;;;27.30;48.80;;;;;;5029132;28;20128;-56
2022/08/16 08:04:44;;;;;;;4.85;3.33;;;27.30;48.80;;;;;;5029356;28;20461;-56
2022/08/16 08:07:11;;;;;;;4.15;3.40;;;27.30;48.70;;;;;;5013122;28;20522;-54
2022/08/16 08:09:38;;;;;;;5.22;3.55;;;27.40;48.70;;;;;;5013990;28;20037;-56
2022/08/16 08:12:04;;;;;;;3.80;3.00;;;27.40;48.60;;;;;;5015404;28;20045;-57
2022/08/16 08:14:35;;;;;;;3.70;2.92;;;27.40;48.50;;;;;;5025290;28;20029;-58
2022/08/16 08:17:06;;;;;;;4.47;2.88;;;27.40;48.50;;;;;;5033655;28;20037;-54
2022/08/16 08:19:33;;;;;;;3.90;3.50;;;27.40;48.40;;;;;;5032087;28;20056;-56
2022/08/16 08:22:02;;;;;;;4.15;3.08;;;27.40;48.30;;;;;;5026418;28;20037;-56
2022/08/16 08:24:48;;;;;;;3.80;3.10;;;27.40;48.30;;;;;;5033494;28;20033;-56
2022/08/16 08:27:16;;;;;;;3.10;2.80;;;27.40;48.20;;;;;;5033037;28;20448;-54
2022/08/16 08:29:42;;;;;;;5.47;2.90;;;27.50;48.20;;;;;;5029129;28;20041;-58
2022/08/16 08:32:11;;;;;;;3.90;3.28;;;27.50;48.10;;;;;;5028699;28;20395;-57
2022/08/16 08:34:37;;;;;;;3.45;3.13;;;27.40;48.00;;;;;;5033301;28;20035;-51
2022/08/16 08:37:04;;;;;;;3.25;2.90;;;27.50;48.00;;;;;;5032907;28;20030;-56
2022/08/16 08:39:37;;;;;;;4.82;3.10;;;27.50;47.90;;;;;;5033589;28;20363;-54
2022/08/16 08:42:04;;;;;;;4.10;2.95;;;27.50;47.80;;;;;;5032029;28;20021;-57
2022/08/16 08:44:31;;;;;;;3.00;2.70;;;27.50;47.80;;;;;;5018172;28;20053;-57
2022/08/16 08:47:07;;;;;;;2.90;2.60;;;27.50;47.80;;;;;;5013907;28;20457;-55
2022/08/16 08:49:34;;;;;;;4.18;3.25;;;27.50;47.50;;;;;;5014547;28;20045;-55
2022/08/16 08:52:02;;;;;;;2.75;2.50;;;27.50;47.40;;;;;;5026082;28;20032;-58
2022/08/16 08:54:28;;;;;;;4.90;2.70;;;27.50;47.40;;;;;;5035223;28;20026;-55
2022/08/16 08:56:55;;;;;;;2.83;2.53;;;27.50;47.30;;;;;;5023979;28;20041;-55
2022/08/16 08:59:36;;;;;;;3.30;2.58;;;27.50;47.20;;;;;;5018142;28;20057;-54
2022/08/16 09:02:07;;;;;;;2.70;2.50;;;27.50;47.20;;;;;;5028052;28;20036;-57
2022/08/16 09:04:45;;;;;;;2.90;2.60;;;27.60;47.20;;;;;;5016684;28;20445;-54
2022/08/16 09:07:12;;;;;;;3.70;2.70;;;27.50;47.10;;;;;;5018236;28;20083;-55
2022/08/16 09:09:38;;;;;;;2.80;2.60;;;27.60;47.10;;;;;;5036586;28;20026;-54
2022/08/16 09:12:07;;;;;;;3.00;2.60;;;27.60;47.10;;;;;;5033503;28;20034;-55
2022/08/16 09:14:46;;;;;;;4.15;2.78;;;27.60;47.10;;;;;;5018453;28;20033;-56
2022/08/16 09:17:12;;;;;;;3.03;2.72;;;27.60;47.10;;;;;;5030950;28;20021;-54
2022/08/16 09:19:39;;;;;;;2.72;2.40;;;27.60;47.00;;;;;;5024678;28;20030;-53
2022/08/16 09:22:05;;;;;;;2.75;2.38;;;27.60;47.00;;;;;;5017464;28;20030;-58
2022/08/16 09:24:32;;;;;;;3.10;2.40;;;27.60;47.00;;;;;;5025700;28;20092;-55
2022/08/16 09:26:58;;;;;;;2.70;2.50;;;27.60;47.00;;;;;;5019457;28;20032;-57
2022/08/16 09:29:24;;;;;;;4.20;2.50;;;27.60;47.00;;;;;;5017287;28;20045;-55
2022/08/16 09:31:50;;;;;;;2.92;2.60;;;27.60;47.00;;;;;;5016102;28;20092;-53
2022/08/16 09:34:16;;;;;;;2.88;2.47;;;27.70;47.10;;;;;;5016868;28;20061;-57
2022/08/16 09:36:42;;;;;;;3.00;2.70;;;27.70;47.10;;;;;;5015944;28;20030;-52
2022/08/16 09:39:08;;;;;;;2.50;2.28;;;27.70;47.10;;;;;;5017665;28;20025;-56
2022/08/16 09:41:35;;;;;;;2.80;2.20;;;27.70;47.10;;;;;;5036518;28;20366;-56
2022/08/16 09:44:02;;;;;;;3.67;2.28;;;27.70;47.10;;;;;;5037128;28;20121;-57
2022/08/16 09:46:30;;;;;;;3.03;2.47;;;27.70;47.10;;;;;;5024515;28;20457;-55
2022/08/16 09:48:57;;;;;;;2.97;2.65;;;27.70;47.10;;;;;;5032896;28;20094;-51
2022/08/16 09:51:25;;;;;;;3.00;2.70;;;27.70;47.10;;;;;;5028285;28;20022;-56
2022/08/16 09:53:52;;;;;;;2.67;2.47;;;27.70;47.10;;;;;;5017601;28;20349;-53
2022/08/16 09:56:30;;;;;;;3.22;2.47;;;27.70;47.10;;;;;;5027671;28;20037;-55
2022/08/16 09:58:57;;;;;;;2.40;2.20;;;27.70;47.10;;;;;;5036515;28;20044;-54
2022/08/16 10:01:24;;;;;;;3.03;2.60;;;27.70;47.00;;;;;;5021398;28;20338;-57
2022/08/16 10:03:51;;;;;;;3.40;2.40;;;27.70;47.00;;;;;;5017062;28;20041;-55
2022/08/16 10:06:20;;;;;;;6.10;2.60;;;27.80;47.00;;;;;;5021319;28;20038;-55
2022/08/16 10:08:49;;;;;;;3.38;2.45;;;27.80;47.10;;;;;;5022529;28;20049;-62
2022/08/16 10:13:59;;;;;;;3.97;2.55;;;27.80;47.20;;;;;;5023506;28;20037;-62
2022/08/16 10:16:25;;;;;;;2.50;2.30;;;27.80;47.20;;;;;;5024864;28;20026;-63
2022/08/16 10:18:52;;;;;;;3.50;2.50;;;27.90;47.30;;;;;;5024446;28;20022;-63
2022/08/16 10:21:17;;;;;;;3.47;2.30;;;28.00;47.30;;;;;;5024777;28;20037;-63
2022/08/16 10:23:44;;;;;;;3.17;2.47;;;28.10;47.30;;;;;;5022070;28;20026;-59
2022/08/16 10:26:10;;;;;;;4.47;2.60;;;28.10;47.10;;;;;;5024473;28;20353;-62
2022/08/16 10:28:36;;;;;;;3.03;2.45;;;28.30;47.10;;;;;;5022234;28;20041;-62
2022/08/16 10:31:04;;;;;;;4.80;2.50;;;28.40;47.00;;;;;;5022201;28;20033;-57
2022/08/16 10:33:32;;;;;;;4.57;2.35;;;28.50;46.80;;;;;;5018783;28;20457;-62
2022/08/16 10:35:58;;;;;;;6.65;2.65;;;28.60;46.60;;;;;;5025663;28;20029;-58
2022/08/16 10:38:24;;;;;;;5.32;3.30;;;28.70;46.20;;;;;;5021274;28;20160;-57
2022/08/16 10:40:50;;;;;;;5.50;3.70;;;28.80;45.50;;;;;;5021780;28;20029;-58
2022/08/16 10:43:16;;;;;;;5.82;4.05;;;28.80;44.70;;;;;;5024347;28;20457;-59
2022/08/16 10:45:41;;;;;;;5.95;4.55;;;28.80;44.00;;;;;;5025409;28;20025;-59
2022/08/16 10:48:09;;;;;;;5.78;4.30;;;28.90;43.30;;;;;;5020656;28;20030;-57
2022/08/16 10:50:36;;;;;;;5.53;4.65;;;28.90;42.50;;;;;;5021379;28;20040;-62
2022/08/16 10:53:06;;;;;;;6.97;4.43;;;28.80;41.90;;;;;;5021015;28;20044;-59
2022/08/16 10:55:35;;;;;;;7.93;4.25;;;28.80;41.60;;;;;;5027580;28;20065;-61
2022/08/16 10:58:03;;;;;;;5.78;4.10;;;28.80;41.10;;;;;;5022959;28;20437;-64
2022/08/16 11:00:31;;;;;;;4.88;4.40;;;28.80;40.80;;;;;;5019556;28;20061;-62
2022/08/16 11:03:02;;;;;;;7.60;5.63;;;28.80;40.40;;;;;;5026399;28;20052;-61
2022/08/16 11:05:34;;;;;;;15.35;6.38;;;28.80;40.90;;;;;;5022310;28;20112;-62
2022/08/16 11:08:00;;;;;;;11.05;8.20;;;28.80;39.90;;;;;;5023217;28;20119;-64
2022/08/16 11:10:32;;;;;;;12.40;8.35;;;28.80;39.30;;;;;;5023418;28;20050;-63
2022/08/16 11:12:58;;;;;;;12.65;9.68;;;28.80;38.60;;;;;;5021406;28;20087;-61
2022/08/16 11:15:24;;;;;;;10.10;9.10;;;28.70;38.50;;;;;;5022187;28;20034;-61
2022/08/16 11:17:52;;;;;;;11.35;10.15;;;28.70;38.30;;;;;;5019790;28;20088;-62
2022/08/16 11:20:18;;;;;;;14.02;11.07;;;28.70;38.20;;;;;;5027723;28;20052;-64
2022/08/16 11:22:46;;;;;;;13.43;12.00;;;28.60;38.30;;;;;;5018900;28;20033;-64
2022/08/16 11:25:15;;;;;;;14.43;11.82;;;28.60;38.50;;;;;;5025921;28;20061;-60
2022/08/16 11:27:41;;;;;;;15.52;12.60;;;28.60;39.00;;;;;;5021321;28;20026;-61
2022/08/16 11:30:11;;;;;;;14.65;12.35;;;28.60;40.00;;;;;;5015815;28;20045;-59
2022/08/16 11:32:37;;;;;;;15.30;12.68;;;28.70;39.80;;;;;;5016645;28;20029;-58
2022/08/16 11:35:07;;;;;;;12.88;11.45;;;28.70;40.00;;;;;;5032521;28;20037;-60
2022/08/16 11:37:34;;;;;;;13.43;12.02;;;28.80;40.30;;;;;;5034330;28;20468;-56
2022/08/16 11:40:01;;;;;;;14.32;12.90;;;28.80;40.40;;;;;;5028893;28;20088;-59
2022/08/16 11:42:26;;;;;;;13.60;11.93;;;28.80;40.30;;;;;;5024922;28;20389;-57
2022/08/16 11:44:52;;;;;;;12.80;11.60;;;28.90;40.50;;;;;;5016876;28;20026;-56
2022/08/16 11:47:18;;;;;;;12.80;11.50;;;28.90;40.50;;;;;;5015278;28;20041;-58
2022/08/16 11:49:44;;;;;;;14.02;12.52;;;28.90;40.50;;;;;;5017130;28;20026;-58
2022/08/16 11:52:10;;;;;;;14.38;12.88;;;28.90;40.50;;;;;;5035154;28;20029;-59
2022/08/16 11:54:36;;;;;;;15.40;13.90;;;28.90;40.60;;;;;;5029063;28;20030;-59
2022/08/16 11:57:02;;;;;;;15.00;13.40;;;29.00;40.60;;;;;;5033727;28;20360;-58
2022/08/16 11:59:28;;;;;;;16.48;14.85;;;28.90;40.50;;;;;;5035005;28;20040;-60
2022/08/16 12:01:58;;;;;;;16.55;14.95;;;28.90;40.50;;;;;;5019861;28;20038;-61
2022/08/16 12:04:24;;;;;;;17.30;15.60;;;29.00;40.60;;;;;;5015225;28;20054;-61
2022/08/16 12:06:51;;;;;;;18.95;17.05;;;29.00;40.60;;;;;;5032180;28;20109;-60
2022/08/16 12:09:16;;;;;;;18.08;16.27;;;28.90;40.50;;;;;;5029637;28;20347;-57
2022/08/16 12:11:43;;;;;;;19.67;17.73;;;28.90;40.50;;;;;;5013507;28;20117;-58
2022/08/16 12:14:09;;;;;;;18.60;16.67;;;28.90;40.50;;;;;;5022140;28;20349;-58
2022/08/16 12:16:36;;;;;;;19.38;17.58;;;28.90;40.40;;;;;;5029297;28;20036;-59
2022/08/16 12:19:06;;;;;;;19.00;17.20;;;28.90;40.30;;;;;;5033021;28;20025;-58
2022/08/16 12:21:33;;;;;;;20.00;18.10;;;28.90;40.20;;;;;;5026171;28;20072;-62
2022/08/16 12:23:59;;;;;;;20.67;18.63;;;28.90;40.10;;;;;;5018855;28;20124;-59
2022/08/16 12:26:25;;;;;;;17.70;15.90;;;28.90;40.00;;;;;;5029945;28;20105;-60
2022/08/16 12:28:52;;;;;;;19.55;17.55;;;28.90;40.00;;;;;;5035570;28;20041;-60
2022/08/16 12:31:21;;;;;;;20.02;18.05;;;28.90;39.90;;;;;;5026430;28;20042;-57
2022/08/16 12:33:47;;;;;;;22.60;20.40;;;28.90;39.90;;;;;;5037946;28;20480;-58
2022/08/16 12:36:14;;;;;;;22.95;20.75;;;29.00;40.10;;;;;;5037047;28;20407;-65
2022/08/16 12:38:40;;;;;;;20.80;18.70;;;28.90;40.30;;;;;;5038312;28;20060;-57
2022/08/16 12:41:06;;;;;;;18.88;17.05;;;29.00;40.60;;;;;;5031618;28;20128;-61
2022/08/16 12:43:32;;;;;;;25.30;18.42;;;29.00;40.80;;;;;;5037272;28;20121;-56
2022/08/16 12:45:58;;;;;;;21.45;18.45;;;29.00;41.00;;;;;;5035526;28;20022;-56
2022/08/16 12:51:16;;;;;;;22.58;20.20;;;29.00;41.50;;;;;;5020875;28;20034;-57
2022/08/16 12:53:43;;;;;;;21.52;19.50;;;29.10;41.80;;;;;;5025473;28;20037;-57